EDW150 EDDN-LSZH
Flight info
| Callsign | EDW150 |
|---|---|
| Flight time | 0h 35m |
| Altitude | 24000 |
| Route | BOLSI1G BOLSI Y166 DKB N869 TEDGO/N0403F230 T724 RILAX |
| Aircraft | A320/M-SDE3FGHIRWY/LB1 |
Departure
| Time | 2026-05-06 20:21 |
|---|---|
| Airport | Nuremberg Airport (EDDN) |
Arrival
| Time | 2026-05-06 20:56 |
|---|---|
| Airport | Zürich Airport (LSZH) |
| Time | Latitude | Longitude | Altitude | Speed | Heading |
|---|---|---|---|---|---|
| 2026-05-06 19:51 | 49.49527 | 11.07660 | 1024 ft | 0 kts | 188° |
| 2026-05-06 20:12 | 49.49542 | 11.07663 | 1025 ft | 4 kts | 184° |
| 2026-05-06 20:12 | 49.49568 | 11.07663 | 1025 ft | 4 kts | 169° |
| 2026-05-06 20:12 | 49.49592 | 11.07649 | 1024 ft | 4 kts | 132° |
| 2026-05-06 20:12 | 49.49599 | 11.07629 | 1026 ft | 1 kts | 98° |
| 2026-05-06 20:13 | 49.49600 | 11.07625 | 1026 ft | 0 kts | 98° |
| 2026-05-06 20:16 | 49.49595 | 11.07678 | 1025 ft | 10 kts | 98° |
| 2026-05-06 20:16 | 49.49583 | 11.07793 | 1025 ft | 12 kts | 98° |
| 2026-05-06 20:16 | 49.49570 | 11.07928 | 1026 ft | 14 kts | 98° |
| 2026-05-06 20:16 | 49.49555 | 11.08085 | 1027 ft | 15 kts | 98° |
| 2026-05-06 20:17 | 49.49540 | 11.08235 | 1027 ft | 13 kts | 99° |
| 2026-05-06 20:17 | 49.49569 | 11.08347 | 1031 ft | 12 kts | 21° |
| 2026-05-06 20:17 | 49.49615 | 11.08434 | 1034 ft | 11 kts | 91° |
| 2026-05-06 20:17 | 49.49602 | 11.08559 | 1035 ft | 13 kts | 98° |
| 2026-05-06 20:18 | 49.49588 | 11.08702 | 1037 ft | 15 kts | 98° |
| 2026-05-06 20:18 | 49.49573 | 11.08867 | 1038 ft | 16 kts | 98° |
| 2026-05-06 20:18 | 49.49555 | 11.09047 | 1040 ft | 18 kts | 99° |
| 2026-05-06 20:18 | 49.49538 | 11.09209 | 1043 ft | 15 kts | 99° |
| 2026-05-06 20:19 | 49.49537 | 11.09368 | 1046 ft | 15 kts | 68° |
| 2026-05-06 20:19 | 49.49594 | 11.09493 | 1049 ft | 12 kts | 54° |
| 2026-05-06 20:19 | 49.49647 | 11.09574 | 1052 ft | 9 kts | 24° |
| 2026-05-06 20:19 | 49.49691 | 11.09570 | 1053 ft | 5 kts | 314° |
| 2026-05-06 20:20 | 49.49698 | 11.09539 | 1052 ft | 5 kts | 279° |
| 2026-05-06 20:20 | 49.49708 | 11.09442 | 1051 ft | 24 kts | 279° |
| 2026-05-06 20:20 | 49.49812 | 11.08380 | 1035 ft | 121 kts | 278° |
| 2026-05-06 20:20 | 49.49961 | 11.06834 | 1108 ft | 161 kts | 278° |
| 2026-05-06 20:21 | 49.50129 | 11.05137 | 1761 ft | 160 kts | 277° |
| 2026-05-06 20:21 | 49.50249 | 11.04000 | 2294 ft | 158 kts | 278° |
| 2026-05-06 20:21 | 49.50418 | 11.02360 | 3038 ft | 157 kts | 278° |
| 2026-05-06 20:21 | 49.50582 | 11.00700 | 3655 ft | 157 kts | 277° |
| 2026-05-06 20:22 | 49.50741 | 10.99047 | 4267 ft | 157 kts | 277° |
| 2026-05-06 20:22 | 49.50908 | 10.97297 | 4595 ft | 176 kts | 277° |
| 2026-05-06 20:22 | 49.51097 | 10.95315 | 4836 ft | 199 kts | 278° |
| 2026-05-06 20:22 | 49.51196 | 10.93073 | 5069 ft | 223 kts | 263° |
| 2026-05-06 20:23 | 49.50693 | 10.90688 | 5421 ft | 248 kts | 245° |
| 2026-05-06 20:23 | 49.49928 | 10.88222 | 6070 ft | 260 kts | 245° |
| 2026-05-06 20:23 | 49.49139 | 10.85685 | 6863 ft | 265 kts | 245° |
| 2026-05-06 20:23 | 49.48339 | 10.83110 | 7717 ft | 268 kts | 244° |
| 2026-05-06 20:24 | 49.47504 | 10.80523 | 8565 ft | 272 kts | 238° |
| 2026-05-06 20:24 | 49.46276 | 10.78299 | 9439 ft | 276 kts | 220° |
| 2026-05-06 20:24 | 49.44613 | 10.76781 | 10201 ft | 282 kts | 201° |
| 2026-05-06 20:24 | 49.42703 | 10.76184 | 10977 ft | 287 kts | 184° |
| 2026-05-06 20:25 | 49.40696 | 10.76145 | 11768 ft | 290 kts | 182° |
| 2026-05-06 20:25 | 49.38681 | 10.76114 | 12615 ft | 290 kts | 182° |
| 2026-05-06 20:25 | 49.36652 | 10.76082 | 13416 ft | 292 kts | 183° |
| 2026-05-06 20:25 | 49.34612 | 10.76048 | 14129 ft | 294 kts | 182° |
| 2026-05-06 20:26 | 49.32554 | 10.76015 | 14807 ft | 297 kts | 182° |
| 2026-05-06 20:26 | 49.30476 | 10.75980 | 15497 ft | 299 kts | 182° |
| 2026-05-06 20:26 | 49.28394 | 10.75776 | 16150 ft | 301 kts | 192° |
| 2026-05-06 20:26 | 49.26416 | 10.74873 | 16802 ft | 302 kts | 204° |
| 2026-05-06 20:27 | 49.24602 | 10.73235 | 17461 ft | 305 kts | 217° |
| 2026-05-06 20:27 | 49.23077 | 10.70947 | 17993 ft | 315 kts | 230° |
| 2026-05-06 20:27 | 49.21916 | 10.67981 | 18147 ft | 337 kts | 245° |
| 2026-05-06 20:27 | 49.21223 | 10.64445 | 18296 ft | 357 kts | 252° |
| 2026-05-06 20:28 | 49.20597 | 10.60676 | 18464 ft | 372 kts | 252° |
| 2026-05-06 20:28 | 49.19948 | 10.56809 | 18873 ft | 378 kts | 252° |
| 2026-05-06 20:28 | 49.19284 | 10.52893 | 19367 ft | 382 kts | 252° |
| 2026-05-06 20:28 | 49.18609 | 10.48940 | 19876 ft | 386 kts | 252° |
| 2026-05-06 20:29 | 49.17924 | 10.44955 | 20372 ft | 390 kts | 251° |
| 2026-05-06 20:29 | 49.17236 | 10.40974 | 20875 ft | 394 kts | 251° |
| 2026-05-06 20:29 | 49.16531 | 10.36913 | 21360 ft | 397 kts | 251° |
| 2026-05-06 20:29 | 49.15819 | 10.32819 | 21830 ft | 401 kts | 251° |
| 2026-05-06 20:30 | 49.15098 | 10.28684 | 22263 ft | 404 kts | 250° |
| 2026-05-06 20:30 | 49.12721 | 10.20955 | 23165 ft | 402 kts | 231° |
| 2026-05-06 20:30 | 49.10994 | 10.17600 | 23575 ft | 403 kts | 227° |
| 2026-05-06 20:31 | 49.09226 | 10.14259 | 23812 ft | 405 kts | 227° |
| 2026-05-06 20:31 | 49.07464 | 10.10925 | 23871 ft | 404 kts | 228° |
| 2026-05-06 20:31 | 49.05708 | 10.07593 | 23862 ft | 401 kts | 228° |
| 2026-05-06 20:31 | 49.03956 | 10.04280 | 23863 ft | 401 kts | 228° |
| 2026-05-06 20:32 | 49.02227 | 10.01021 | 23862 ft | 400 kts | 228° |
| 2026-05-06 20:32 | 49.00475 | 9.97721 | 23863 ft | 400 kts | 228° |
| 2026-05-06 20:32 | 48.98721 | 9.94414 | 23862 ft | 400 kts | 228° |
| 2026-05-06 20:32 | 48.96973 | 9.91113 | 23862 ft | 400 kts | 228° |
| 2026-05-06 20:33 | 48.95221 | 9.87816 | 23863 ft | 400 kts | 228° |
| 2026-05-06 20:33 | 48.93462 | 9.84520 | 23865 ft | 400 kts | 228° |
| 2026-05-06 20:33 | 48.91701 | 9.81230 | 23864 ft | 400 kts | 227° |
| 2026-05-06 20:33 | 48.89948 | 9.77957 | 23863 ft | 400 kts | 227° |
| 2026-05-06 20:34 | 48.88209 | 9.74711 | 23870 ft | 400 kts | 228° |
| 2026-05-06 20:34 | 48.86433 | 9.71401 | 23872 ft | 400 kts | 228° |
| 2026-05-06 20:34 | 48.84698 | 9.68170 | 23874 ft | 399 kts | 228° |
| 2026-05-06 20:34 | 48.82946 | 9.64914 | 23884 ft | 399 kts | 229° |
| 2026-05-06 20:35 | 48.81171 | 9.61621 | 23870 ft | 406 kts | 230° |
| 2026-05-06 20:35 | 48.79377 | 9.58289 | 23871 ft | 409 kts | 230° |
| 2026-05-06 20:35 | 48.77579 | 9.54944 | 23876 ft | 409 kts | 230° |
| 2026-05-06 20:35 | 48.75777 | 9.51601 | 23876 ft | 410 kts | 230° |
| 2026-05-06 20:36 | 48.73968 | 9.48254 | 23874 ft | 410 kts | 230° |
| 2026-05-06 20:36 | 48.72160 | 9.44917 | 23876 ft | 410 kts | 230° |
| 2026-05-06 20:36 | 48.70352 | 9.41587 | 23876 ft | 410 kts | 230° |
| 2026-05-06 20:36 | 48.68541 | 9.38248 | 23881 ft | 409 kts | 230° |
| 2026-05-06 20:37 | 48.66737 | 9.34927 | 23892 ft | 408 kts | 230° |
| 2026-05-06 20:37 | 48.64955 | 9.31654 | 23894 ft | 408 kts | 230° |
| 2026-05-06 20:37 | 48.63149 | 9.28341 | 23893 ft | 408 kts | 229° |
| 2026-05-06 20:37 | 48.61172 | 9.25273 | 23893 ft | 407 kts | 220° |
| 2026-05-06 20:38 | 48.58935 | 9.22650 | 23892 ft | 407 kts | 216° |
| 2026-05-06 20:38 | 48.56657 | 9.20107 | 23891 ft | 407 kts | 216° |
| 2026-05-06 20:38 | 48.54378 | 9.17563 | 23890 ft | 407 kts | 216° |
| 2026-05-06 20:38 | 48.52098 | 9.15018 | 23890 ft | 407 kts | 216° |
| 2026-05-06 20:39 | 48.49815 | 9.12471 | 23884 ft | 407 kts | 216° |
| 2026-05-06 20:39 | 48.47539 | 9.09930 | 23884 ft | 407 kts | 216° |
| 2026-05-06 20:39 | 48.45280 | 9.07410 | 23892 ft | 413 kts | 216° |
| 2026-05-06 20:39 | 48.42960 | 9.04825 | 23894 ft | 416 kts | 216° |
| 2026-05-06 20:40 | 48.40635 | 9.02241 | 23894 ft | 417 kts | 216° |
| 2026-05-06 20:40 | 48.38300 | 8.99652 | 23904 ft | 417 kts | 216° |
| 2026-05-06 20:40 | 48.35960 | 8.97063 | 23902 ft | 417 kts | 216° |
| 2026-05-06 20:40 | 48.33624 | 8.94479 | 23900 ft | 417 kts | 216° |
| 2026-05-06 20:41 | 48.31282 | 8.91892 | 23904 ft | 417 kts | 216° |
| 2026-05-06 20:41 | 48.28949 | 8.89308 | 23911 ft | 416 kts | 216° |
| 2026-05-06 20:41 | 48.26631 | 8.86729 | 23909 ft | 414 kts | 217° |
| 2026-05-06 20:41 | 48.24328 | 8.84160 | 23605 ft | 410 kts | 217° |
| 2026-05-06 20:42 | 48.22041 | 8.81626 | 22908 ft | 407 kts | 216° |
| 2026-05-06 20:42 | 48.19769 | 8.79159 | 21942 ft | 399 kts | 216° |
| 2026-05-06 20:42 | 48.17528 | 8.76760 | 20905 ft | 392 kts | 216° |
| 2026-05-06 20:42 | 48.15318 | 8.74420 | 19953 ft | 386 kts | 215° |
| 2026-05-06 20:43 | 48.13148 | 8.72130 | 19055 ft | 379 kts | 216° |
| 2026-05-06 20:43 | 48.11014 | 8.69876 | 18177 ft | 372 kts | 216° |
| 2026-05-06 20:43 | 48.08946 | 8.67683 | 17196 ft | 366 kts | 216° |
| 2026-05-06 20:43 | 48.06888 | 8.65497 | 16242 ft | 360 kts | 216° |
| 2026-05-06 20:44 | 48.04861 | 8.63343 | 15322 ft | 354 kts | 216° |
| 2026-05-06 20:44 | 48.02867 | 8.61230 | 14418 ft | 349 kts | 216° |
| 2026-05-06 20:44 | 48.00897 | 8.59143 | 13513 ft | 343 kts | 216° |
| 2026-05-06 20:44 | 47.98958 | 8.57088 | 12525 ft | 339 kts | 216° |
| 2026-05-06 20:45 | 47.97070 | 8.55091 | 12047 ft | 321 kts | 216° |
| 2026-05-06 20:45 | 47.95322 | 8.53248 | 11905 ft | 296 kts | 216° |
| 2026-05-06 20:45 | 47.93687 | 8.51527 | 11541 ft | 282 kts | 216° |
| 2026-05-06 20:45 | 47.92117 | 8.49872 | 11049 ft | 280 kts | 217° |
| 2026-05-06 20:46 | 47.90535 | 8.48204 | 10727 ft | 277 kts | 217° |
| 2026-05-06 20:46 | 47.88969 | 8.46552 | 10387 ft | 275 kts | 217° |
| 2026-05-06 20:46 | 47.87416 | 8.44915 | 10099 ft | 271 kts | 217° |
| 2026-05-06 20:46 | 47.85889 | 8.43307 | 9725 ft | 268 kts | 218° |
| 2026-05-06 20:47 | 47.84379 | 8.41720 | 9315 ft | 265 kts | 218° |
| 2026-05-06 20:47 | 47.82875 | 8.40142 | 8909 ft | 263 kts | 218° |
| 2026-05-06 20:47 | 47.81385 | 8.38582 | 8503 ft | 260 kts | 218° |
| 2026-05-06 20:47 | 47.79907 | 8.37034 | 7924 ft | 258 kts | 218° |
| 2026-05-06 20:48 | 47.78446 | 8.35505 | 7386 ft | 256 kts | 218° |
| 2026-05-06 20:48 | 47.76998 | 8.33990 | 6900 ft | 253 kts | 218° |
| 2026-05-06 20:48 | 47.75573 | 8.32500 | 6390 ft | 249 kts | 218° |
| 2026-05-06 20:48 | 47.74167 | 8.31029 | 6045 ft | 245 kts | 218° |
| 2026-05-06 20:49 | 47.72803 | 8.29607 | 5991 ft | 229 kts | 218° |
| 2026-05-06 20:49 | 47.71562 | 8.28319 | 5999 ft | 206 kts | 219° |
| 2026-05-06 20:49 | 47.70360 | 8.27376 | 6005 ft | 194 kts | 203° |
| 2026-05-06 20:49 | 47.69083 | 8.27082 | 6028 ft | 182 kts | 186° |
| 2026-05-06 20:50 | 47.67836 | 8.27388 | 6012 ft | 184 kts | 168° |
| 2026-05-06 20:50 | 47.66686 | 8.28270 | 6003 ft | 190 kts | 150° |
| 2026-05-06 20:50 | 47.65687 | 8.29595 | 6011 ft | 193 kts | 144° |
| 2026-05-06 20:50 | 47.64705 | 8.30956 | 5858 ft | 193 kts | 144° |
| 2026-05-06 20:51 | 47.63725 | 8.32310 | 5623 ft | 193 kts | 144° |
| 2026-05-06 20:51 | 47.62742 | 8.33664 | 5369 ft | 193 kts | 143° |
| 2026-05-06 20:51 | 47.61759 | 8.35018 | 5110 ft | 193 kts | 143° |
| 2026-05-06 20:51 | 47.60774 | 8.36373 | 4852 ft | 193 kts | 143° |
| 2026-05-06 20:52 | 47.59789 | 8.37729 | 4598 ft | 193 kts | 143° |
| 2026-05-06 20:52 | 47.58801 | 8.39086 | 4334 ft | 194 kts | 143° |
| 2026-05-06 20:52 | 47.57816 | 8.40441 | 4065 ft | 192 kts | 143° |
| 2026-05-06 20:52 | 47.56848 | 8.41772 | 3800 ft | 185 kts | 143° |
| 2026-05-06 20:53 | 47.55941 | 8.43020 | 3556 ft | 172 kts | 143° |
| 2026-05-06 20:53 | 47.55084 | 8.44196 | 3328 ft | 165 kts | 143° |
| 2026-05-06 20:53 | 47.54246 | 8.45343 | 3110 ft | 162 kts | 143° |
| 2026-05-06 20:53 | 47.53423 | 8.46470 | 2895 ft | 160 kts | 142° |
| 2026-05-06 20:54 | 47.52611 | 8.47582 | 2678 ft | 158 kts | 141° |
| 2026-05-06 20:54 | 47.51811 | 8.48674 | 2459 ft | 155 kts | 141° |
| 2026-05-06 20:54 | 47.51031 | 8.49739 | 2232 ft | 152 kts | 139° |
| 2026-05-06 20:54 | 47.50260 | 8.50790 | 2003 ft | 150 kts | 139° |
| 2026-05-06 20:55 | 47.49497 | 8.51841 | 1804 ft | 150 kts | 138° |
| 2026-05-06 20:55 | 47.48734 | 8.52889 | 1602 ft | 149 kts | 139° |
| 2026-05-06 20:55 | 47.47976 | 8.53932 | 1412 ft | 146 kts | 138° |
| 2026-05-06 20:55 | 47.47324 | 8.54811 | 1389 ft | 103 kts | 137° |
| 2026-05-06 20:56 | 47.46941 | 8.55337 | 1391 ft | 52 kts | 137° |
| 2026-05-06 20:56 | 47.46750 | 8.55584 | 1394 ft | 32 kts | 146° |
| 2026-05-06 20:56 | 47.46580 | 8.55683 | 1399 ft | 22 kts | 166° |
| 2026-05-06 20:56 | 47.46457 | 8.55725 | 1377 ft | 16 kts | 167° |
| 2026-05-06 20:57 | 47.46388 | 8.55756 | 1402 ft | 7 kts | 153° |
| 2026-05-06 20:57 | 47.46348 | 8.55805 | 1403 ft | 9 kts | 137° |
| 2026-05-06 20:57 | 47.46313 | 8.55853 | 1401 ft | 5 kts | 136° |
| 2026-05-06 20:57 | 47.46274 | 8.55908 | 1402 ft | 11 kts | 137° |
| 2026-05-06 20:58 | 47.46222 | 8.55977 | 1409 ft | 8 kts | 141° |
| 2026-05-06 20:58 | 47.46158 | 8.56001 | 1406 ft | 12 kts | 185° |
| 2026-05-06 20:58 | 47.46081 | 8.55987 | 1407 ft | 11 kts | 186° |
| 2026-05-06 20:58 | 47.45993 | 8.55974 | 1406 ft | 14 kts | 186° |
| 2026-05-06 20:59 | 47.45899 | 8.55933 | 1411 ft | 13 kts | 199° |
| 2026-05-06 20:59 | 47.45819 | 8.55891 | 1414 ft | 13 kts | 199° |
| 2026-05-06 20:59 | 47.45726 | 8.55870 | 1411 ft | 13 kts | 186° |
| 2026-05-06 20:59 | 47.45642 | 8.55857 | 1408 ft | 12 kts | 186° |
| 2026-05-06 21:00 | 47.45567 | 8.55845 | 1408 ft | 11 kts | 186° |
| 2026-05-06 21:00 | 47.45494 | 8.55816 | 1411 ft | 10 kts | 197° |
| 2026-05-06 21:00 | 47.45440 | 8.55806 | 1409 ft | 4 kts | 186° |
| 2026-05-06 21:00 | 47.45427 | 8.55804 | 1407 ft | 1 kts | 186° |
| 2026-05-06 21:01 | 47.45425 | 8.55804 | 1407 ft | 0 kts | 186° |